sensor_id;sensor_type;location;lat;lon;timestamp;pressure;altitude;pressure_sealevel;temperature
62180;BMP280;48172;53.374;10.722;2022-09-03T00:01:11;101954.56;;;26.40
62180;BMP280;48172;53.374;10.722;2022-09-03T00:03:46;101949.06;;;26.40
62180;BMP280;48172;53.374;10.722;2022-09-03T00:06:17;101954.25;;;26.38
62180;BMP280;48172;53.374;10.722;2022-09-03T00:08:56;101950.75;;;26.38
62180;BMP280;48172;53.374;10.722;2022-09-03T00:14:14;101954.00;;;26.36
62180;BMP280;48172;53.374;10.722;2022-09-03T00:16:48;101953.50;;;26.38
62180;BMP280;48172;53.374;10.722;2022-09-03T00:19:17;101952.00;;;26.37
62180;BMP280;48172;53.374;10.722;2022-09-03T00:21:50;101954.00;;;26.36
62180;BMP280;48172;53.374;10.722;2022-09-03T00:24:19;101957.91;;;26.35
62180;BMP280;48172;53.374;10.722;2022-09-03T00:26:52;101957.91;;;26.35
62180;BMP280;48172;53.374;10.722;2022-09-03T00:29:23;101957.16;;;26.35
62180;BMP280;48172;53.374;10.722;2022-09-03T00:31:55;101952.94;;;26.34
62180;BMP280;48172;53.374;10.722;2022-09-03T00:36:54;101946.38;;;26.31
62180;BMP280;48172;53.374;10.722;2022-09-03T00:39:23;101952.63;;;26.32
62180;BMP280;48172;53.374;10.722;2022-09-03T00:53:34;101940.34;;;26.27
62180;BMP280;48172;53.374;10.722;2022-09-03T00:56:05;101940.34;;;26.27
62180;BMP280;48172;53.374;10.722;2022-09-03T00:58:44;101931.34;;;26.27
62180;BMP280;48172;53.374;10.722;2022-09-03T01:01:21;101938.06;;;26.25
62180;BMP280;48172;53.374;10.722;2022-09-03T01:20:16;101941.28;;;26.24
62180;BMP280;48172;53.374;10.722;2022-09-03T01:28:41;101941.75;;;26.22
62180;BMP280;48172;53.374;10.722;2022-09-03T01:34:07;101940.69;;;26.20
62180;BMP280;48172;53.374;10.722;2022-09-03T01:36:49;101940.69;;;26.20
62180;BMP280;48172;53.374;10.722;2022-09-03T01:39:44;101941.44;;;26.20
62180;BMP280;48172;53.374;10.722;2022-09-03T01:45:15;101944.19;;;26.20
62180;BMP280;48172;53.374;10.722;2022-09-03T01:54:06;101941.16;;;26.18
62180;BMP280;48172;53.374;10.722;2022-09-03T01:59:45;101923.66;;;26.16
62180;BMP280;48172;53.374;10.722;2022-09-03T02:02:19;101921.69;;;26.16
62180;BMP280;48172;53.374;10.722;2022-09-03T02:05:09;101928.38;;;26.15
62180;BMP280;48172;53.374;10.722;2022-09-03T02:07:47;101924.88;;;26.15
62180;BMP280;48172;53.374;10.722;2022-09-03T02:10:20;101932.81;;;26.13
62180;BMP280;48172;53.374;10.722;2022-09-03T02:12:54;101929.63;;;26.14
62180;BMP280;48172;53.374;10.722;2022-09-03T02:15:23;101928.88;;;26.14
62180;BMP280;48172;53.374;10.722;2022-09-03T02:17:53;101927.63;;;26.15
62180;BMP280;48172;53.374;10.722;2022-09-03T02:20:23;101930.34;;;26.15
62180;BMP280;48172;53.374;10.722;2022-09-03T02:22:51;101926.88;;;26.14
62180;BMP280;48172;53.374;10.722;2022-09-03T02:25:21;101923.06;;;26.12
62180;BMP280;48172;53.374;10.722;2022-09-03T02:27:49;101927.78;;;26.11
62180;BMP280;48172;53.374;10.722;2022-09-03T02:30:16;101932.81;;;26.13
62180;BMP280;48172;53.374;10.722;2022-09-03T02:32:43;101936.31;;;26.13
62180;BMP280;48172;53.374;10.722;2022-09-03T02:35:10;101927.06;;;26.11
62180;BMP280;48172;53.374;10.722;2022-09-03T02:37:38;101930.53;;;26.11
62180;BMP280;48172;53.374;10.722;2022-09-03T02:40:05;101933.75;;;26.10
62180;BMP280;48172;53.374;10.722;2022-09-03T02:42:35;101927.78;;;26.11
62180;BMP280;48172;53.374;10.722;2022-09-03T02:45:28;101924.78;;;26.09
62180;BMP280;48172;53.374;10.722;2022-09-03T02:47:58;101928.28;;;26.10
62180;BMP280;48172;53.374;10.722;2022-09-03T02:50:25;101931.47;;;26.08
62180;BMP280;48172;53.374;10.722;2022-09-03T02:52:52;101934.97;;;26.09
62180;BMP280;48172;53.374;10.722;2022-09-03T02:55:19;101929.50;;;26.09
62180;BMP280;48172;53.374;10.722;2022-09-03T02:57:45;101937.72;;;26.09
62180;BMP280;48172;53.374;10.722;2022-09-03T03:00:13;101932.69;;;26.07
62180;BMP280;48172;53.374;10.722;2022-09-03T03:02:39;101929.19;;;26.07
62180;BMP280;48172;53.374;10.722;2022-09-03T03:05:09;101930.41;;;26.06
62180;BMP280;48172;53.374;10.722;2022-09-03T03:07:39;101931.19;;;26.06
62180;BMP280;48172;53.374;10.722;2022-09-03T03:10:06;101928.91;;;26.05
62180;BMP280;48172;53.374;10.722;2022-09-03T03:12:33;101920.97;;;26.07
62180;BMP280;48172;53.374;10.722;2022-09-03T03:15:00;101920.69;;;26.05
62180;BMP280;48172;53.374;10.722;2022-09-03T03:17:27;101926.66;;;26.03
62180;BMP280;48172;53.374;10.722;2022-09-03T03:19:54;101923.91;;;26.03
62180;BMP280;48172;53.374;10.722;2022-09-03T03:22:20;101925.09;;;26.02
62180;BMP280;48172;53.374;10.722;2022-09-03T03:24:46;101921.19;;;26.03
62180;BMP280;48172;53.374;10.722;2022-09-03T03:27:15;101924.34;;;26.02
62180;BMP280;48172;53.374;10.722;2022-09-03T03:29:42;101922.84;;;26.01
62180;BMP280;48172;53.374;10.722;2022-09-03T03:32:08;101924.34;;;26.02
62180;BMP280;48172;53.374;10.722;2022-09-03T03:34:35;101924.84;;;26.00
62180;BMP280;48172;53.374;10.722;2022-09-03T03:37:01;101927.56;;;26.00
62180;BMP280;48172;53.374;10.722;2022-09-03T03:39:28;101933.06;;;26.00
62180;BMP280;48172;53.374;10.722;2022-09-03T03:41:55;101931.53;;;25.99
62180;BMP280;48172;53.374;10.722;2022-09-03T03:44:21;101937.00;;;25.99
62180;BMP280;48172;53.374;10.722;2022-09-03T03:46:47;101940.22;;;25.98
62180;BMP280;48172;53.374;10.722;2022-09-03T03:49:14;101942.94;;;25.98
62180;BMP280;48172;53.374;10.722;2022-09-03T03:51:40;101940.22;;;25.98
62180;BMP280;48172;53.374;10.722;2022-09-03T03:54:07;101937.16;;;25.96
62180;BMP280;48172;53.374;10.722;2022-09-03T03:56:34;101939.44;;;25.97
62180;BMP280;48172;53.374;10.722;2022-09-03T03:59:01;101943.41;;;25.96
62180;BMP280;48172;53.374;10.722;2022-09-03T04:01:28;101936.41;;;25.95
62180;BMP280;48172;53.374;10.722;2022-09-03T04:03:56;101934.94;;;25.94
62180;BMP280;48172;53.374;10.722;2022-09-03T04:06:23;101925.63;;;25.92
62180;BMP280;48172;53.374;10.722;2022-09-03T04:08:50;101934.94;;;25.94
62180;BMP280;48172;53.374;10.722;2022-09-03T04:11:19;101938.84;;;25.93
62180;BMP280;48172;53.374;10.722;2022-09-03T04:13:47;101942.34;;;25.94
62180;BMP280;48172;53.374;10.722;2022-09-03T04:16:19;101940.06;;;25.92
62180;BMP280;48172;53.374;10.722;2022-09-03T04:18:47;101951.03;;;25.92
62180;BMP280;48172;53.374;10.722;2022-09-03T04:21:22;101948.28;;;25.92
62180;BMP280;48172;53.374;10.722;2022-09-03T04:23:51;101944.06;;;25.91
62180;BMP280;48172;53.374;10.722;2022-09-03T04:26:24;101943.28;;;25.91
62180;BMP280;48172;53.374;10.722;2022-09-03T04:28:50;101941.78;;;25.90
62180;BMP280;48172;53.374;10.722;2022-09-03T04:31:19;101947.25;;;25.90
62180;BMP280;48172;53.374;10.722;2022-09-03T04:33:45;101947.25;;;25.90
62180;BMP280;48172;53.374;10.722;2022-09-03T04:36:14;101944.53;;;25.90
62180;BMP280;48172;53.374;10.722;2022-09-03T04:38:45;101939.03;;;25.90
62180;BMP280;48172;53.374;10.722;2022-09-03T04:41:17;101943.72;;;25.89
62180;BMP280;48172;53.374;10.722;2022-09-03T04:43:44;101934.75;;;25.88
62180;BMP280;48172;53.374;10.722;2022-09-03T04:46:16;101943.72;;;25.89
62180;BMP280;48172;53.374;10.722;2022-09-03T04:48:47;101942.22;;;25.88
62180;BMP280;48172;53.374;10.722;2022-09-03T04:51:18;101943.47;;;25.87
62180;BMP280;48172;53.374;10.722;2022-09-03T04:53:46;101942.69;;;25.86
62180;BMP280;48172;53.374;10.722;2022-09-03T04:56:16;101943.16;;;25.85
62180;BMP280;48172;53.374;10.722;2022-09-03T04:58:44;101940.72;;;25.87
62180;BMP280;48172;53.374;10.722;2022-09-03T05:01:16;101947.88;;;25.84
62180;BMP280;48172;53.374;10.722;2022-09-03T05:03:44;101947.88;;;25.84
62180;BMP280;48172;53.374;10.722;2022-09-03T05:06:11;101942.84;;;25.83
62180;BMP280;48172;53.374;10.722;2022-09-03T05:08:38;101944.84;;;25.82
62180;BMP280;48172;53.374;10.722;2022-09-03T05:11:06;101949.41;;;25.85
62180;BMP280;48172;53.374;10.722;2022-09-03T05:13:34;101945.59;;;25.83
62180;BMP280;48172;53.374;10.722;2022-09-03T05:16:04;101941.34;;;25.82
62180;BMP280;48172;53.374;10.722;2022-09-03T05:18:32;101950.03;;;25.80
62180;BMP280;48172;53.374;10.722;2022-09-03T05:21:03;101950.03;;;25.80
62180;BMP280;48172;53.374;10.722;2022-09-03T05:23:30;101948.50;;;25.79
62180;BMP280;48172;53.374;10.722;2022-09-03T05:26:03;101950.03;;;25.80
62180;BMP280;48172;53.374;10.722;2022-09-03T05:28:37;101945.31;;;25.81
62180;BMP280;48172;53.374;10.722;2022-09-03T05:31:18;101943.03;;;25.79
62180;BMP280;48172;53.374;10.722;2022-09-03T05:33:50;101948.50;;;25.79
62180;BMP280;48172;53.374;10.722;2022-09-03T05:36:21;101946.97;;;25.78
62180;BMP280;48172;53.374;10.722;2022-09-03T05:38:51;101948.97;;;25.78
62180;BMP280;48172;53.374;10.722;2022-09-03T05:41:22;101956.88;;;25.76
62180;BMP280;48172;53.374;10.722;2022-09-03T05:43:50;101952.44;;;25.78
62180;BMP280;48172;53.374;10.722;2022-09-03T05:46:25;101963.13;;;25.76
62180;BMP280;48172;53.374;10.722;2022-09-03T05:48:58;101958.41;;;25.77
62180;BMP280;48172;53.374;10.722;2022-09-03T05:51:25;101950.66;;;25.75
62180;BMP280;48172;53.374;10.722;2022-09-03T05:53:51;101960.38;;;25.76
62180;BMP280;48172;53.374;10.722;2022-09-03T05:56:20;101963.13;;;25.76
62180;BMP280;48172;53.374;10.722;2022-09-03T05:58:52;101953.41;;;25.75
62180;BMP280;48172;53.374;10.722;2022-09-03T06:01:19;101949.13;;;25.74
62180;BMP280;48172;53.374;10.722;2022-09-03T06:03:53;101953.41;;;25.75
62180;BMP280;48172;53.374;10.722;2022-09-03T06:06:20;101943.66;;;25.74
62180;BMP280;48172;53.374;10.722;2022-09-03T06:08:55;101944.41;;;25.75
62180;BMP280;48172;53.374;10.722;2022-09-03T06:11:21;101943.66;;;25.74
62180;BMP280;48172;53.374;10.722;2022-09-03T06:13:51;101949.13;;;25.74
62180;BMP280;48172;53.374;10.722;2022-09-03T06:16:19;101950.34;;;25.73
62180;BMP280;48172;53.374;10.722;2022-09-03T06:19:00;101951.13;;;25.74
62180;BMP280;48172;53.374;10.722;2022-09-03T06:21:27;101948.38;;;25.74
62180;BMP280;48172;53.374;10.722;2022-09-03T06:23:56;101945.19;;;25.75
62180;BMP280;48172;53.374;10.722;2022-09-03T06:26:25;101949.13;;;25.74
62180;BMP280;48172;53.374;10.722;2022-09-03T06:28:55;101940.16;;;25.74
62180;BMP280;48172;53.374;10.722;2022-09-03T06:31:23;101956.88;;;25.76
62180;BMP280;48172;53.374;10.722;2022-09-03T06:33:49;101954.16;;;25.76
62180;BMP280;48172;53.374;10.722;2022-09-03T06:36:18;101957.34;;;25.74
62180;BMP280;48172;53.374;10.722;2022-09-03T06:38:45;101957.34;;;25.74
62180;BMP280;48172;53.374;10.722;2022-09-03T06:41:15;101958.09;;;25.75
62180;BMP280;48172;53.374;10.722;2022-09-03T06:43:52;101963.13;;;25.76
62180;BMP280;48172;53.374;10.722;2022-09-03T06:46:21;101964.34;;;25.75
62180;BMP280;48172;53.374;10.722;2022-09-03T06:48:49;101961.59;;;25.75
62180;BMP280;48172;53.374;10.722;2022-09-03T06:51:21;101965.88;;;25.76
62180;BMP280;48172;53.374;10.722;2022-09-03T06:53:50;101968.88;;;25.78
62180;BMP280;48172;53.374;10.722;2022-09-03T06:56:19;101965.41;;;25.78
62180;BMP280;48172;53.374;10.722;2022-09-03T06:58:54;101972.84;;;25.77
62180;BMP280;48172;53.374;10.722;2022-09-03T07:01:24;101968.59;;;25.76
62180;BMP280;48172;53.374;10.722;2022-09-03T07:03:53;101966.63;;;25.77
62180;BMP280;48172;53.374;10.722;2022-09-03T07:06:23;101970.88;;;25.78
62180;BMP280;48172;53.374;10.722;2022-09-03T07:08:50;101977.41;;;25.80
62180;BMP280;48172;53.374;10.722;2022-09-03T07:11:20;101964.16;;;25.79
62180;BMP280;48172;53.374;10.722;2022-09-03T07:13:50;101966.91;;;25.79
62180;BMP280;48172;53.374;10.722;2022-09-03T07:16:28;101965.22;;;25.81
62180;BMP280;48172;53.374;10.722;2022-09-03T07:18:55;101959.75;;;25.81
62180;BMP280;48172;53.374;10.722;2022-09-03T07:21:24;101962.78;;;25.83
62180;BMP280;48172;53.374;10.722;2022-09-03T07:23:52;101967.34;;;25.86
62180;BMP280;48172;53.374;10.722;2022-09-03T07:26:26;101966.13;;;25.87
62180;BMP280;48172;53.374;10.722;2022-09-03T07:28:53;101958.97;;;25.90
62180;BMP280;48172;53.374;10.722;2022-09-03T07:31:22;101966.69;;;25.92
62180;BMP280;48172;53.374;10.722;2022-09-03T07:34:03;101958.78;;;25.94
62180;BMP280;48172;53.374;10.722;2022-09-03T07:39:09;101967.91;;;26.00
62180;BMP280;48172;53.374;10.722;2022-09-03T07:41:40;101969.41;;;26.01
62180;BMP280;48172;53.374;10.722;2022-09-03T07:44:08;101967.72;;;26.03
62180;BMP280;48172;53.374;10.722;2022-09-03T07:46:36;101976.72;;;26.04
62180;BMP280;48172;53.374;10.722;2022-09-03T07:49:04;101962.81;;;26.07
62180;BMP280;48172;53.374;10.722;2022-09-03T07:51:36;101968.59;;;26.09
62180;BMP280;48172;53.374;10.722;2022-09-03T07:54:05;101973.91;;;26.13
62180;BMP280;48172;53.374;10.722;2022-09-03T07:56:33;101971.94;;;26.13
62180;BMP280;48172;53.374;10.722;2022-09-03T07:59:01;101978.44;;;26.16
62180;BMP280;48172;53.374;10.722;2022-09-03T08:01:29;101981.03;;;26.19
62180;BMP280;48172;53.374;10.722;2022-09-03T08:03:58;101977.34;;;26.22
62180;BMP280;48172;53.374;10.722;2022-09-03T08:06:27;101975.38;;;26.23
62180;BMP280;48172;53.374;10.722;2022-09-03T08:08:59;101970.94;;;26.25
62180;BMP280;48172;53.374;10.722;2022-09-03T08:11:31;101969.25;;;26.28
62180;BMP280;48172;53.374;10.722;2022-09-03T08:14:00;101971.53;;;26.30
62180;BMP280;48172;53.374;10.722;2022-09-03T08:16:29;101964.34;;;26.32
62180;BMP280;48172;53.374;10.722;2022-09-03T08:18:57;101972.13;;;26.34
62180;BMP280;48172;53.374;10.722;2022-09-03T08:21:24;101973.16;;;26.36
62180;BMP280;48172;53.374;10.722;2022-09-03T08:23:54;101974.19;;;26.39
62180;BMP280;48172;53.374;10.722;2022-09-03T08:26:29;101972.50;;;26.41
62180;BMP280;48172;53.374;10.722;2022-09-03T08:28:57;101974.78;;;26.43
62180;BMP280;48172;53.374;10.722;2022-09-03T08:31:24;101972.31;;;26.45
62180;BMP280;48172;53.374;10.722;2022-09-03T08:33:52;101969.13;;;26.46
62180;BMP280;48172;53.374;10.722;2022-09-03T08:36:21;101965.44;;;26.49
62180;BMP280;48172;53.374;10.722;2022-09-03T08:38:49;101961.78;;;26.52
62180;BMP280;48172;53.374;10.722;2022-09-03T08:47:28;101957.44;;;26.60
62180;BMP280;48172;53.374;10.722;2022-09-03T08:52:50;101951.78;;;26.64
62180;BMP280;48172;53.374;10.722;2022-09-03T08:55:30;101963.31;;;26.68
62180;BMP280;48172;53.374;10.722;2022-09-03T09:00:52;101953.69;;;26.73
62180;BMP280;48172;53.374;10.722;2022-09-03T09:06:22;101955.34;;;26.79
62180;BMP280;48172;53.374;10.722;2022-09-03T09:14:34;101955.25;;;26.88
62180;BMP280;48172;53.374;10.722;2022-09-03T09:17:21;101946.53;;;26.90
62180;BMP280;48172;53.374;10.722;2022-09-03T09:20:20;101946.34;;;26.93
62180;BMP280;48172;53.374;10.722;2022-09-03T09:22:50;101948.13;;;26.96
62180;BMP280;48172;53.374;10.722;2022-09-03T09:25:22;101949.94;;;26.99
62180;BMP280;48172;53.374;10.722;2022-09-03T09:30:26;101952.03;;;27.05
62180;BMP280;48172;53.374;10.722;2022-09-03T09:32:53;101948.34;;;27.08
62180;BMP280;48172;53.374;10.722;2022-09-03T09:35:22;101948.19;;;27.11
62180;BMP280;48172;53.374;10.722;2022-09-03T09:40:31;101936.53;;;27.16
62180;BMP280;48172;53.374;10.722;2022-09-03T09:43:05;101932.06;;;27.19
62180;BMP280;48172;53.374;10.722;2022-09-03T09:45:33;101934.34;;;27.20
62180;BMP280;48172;53.374;10.722;2022-09-03T09:48:01;101933.69;;;27.25
62180;BMP280;48172;53.374;10.722;2022-09-03T09:50:28;101935.19;;;27.26
62180;BMP280;48172;53.374;10.722;2022-09-03T09:53:02;101928.75;;;27.29
62180;BMP280;48172;53.374;10.722;2022-09-03T09:55:33;101925.34;;;27.34
62180;BMP280;48172;53.374;10.722;2022-09-03T09:58:07;101927.63;;;27.36
62180;BMP280;48172;53.374;10.722;2022-09-03T10:00:39;101924.19;;;27.41
62180;BMP280;48172;53.374;10.722;2022-09-03T10:03:10;101933.25;;;27.47
62180;BMP280;48172;53.374;10.722;2022-09-03T10:05:39;101921.06;;;27.48
62180;BMP280;48172;53.374;10.722;2022-09-03T10:08:18;101927.09;;;27.52
62180;BMP280;48172;53.374;10.722;2022-09-03T10:10:47;101928.72;;;27.59
62180;BMP280;48172;53.374;10.722;2022-09-03T10:13:21;101918.28;;;27.63
62180;BMP280;48172;53.374;10.722;2022-09-03T10:16:05;101927.09;;;27.67
62180;BMP280;48172;53.374;10.722;2022-09-03T10:18:39;101921.66;;;27.72
62180;BMP280;48172;53.374;10.722;2022-09-03T10:21:13;101912.75;;;27.78
62180;BMP280;48172;53.374;10.722;2022-09-03T10:24:01;101914.81;;;27.83
62180;BMP280;48172;53.374;10.722;2022-09-03T10:26:35;101920.34;;;27.88
62180;BMP280;48172;53.374;10.722;2022-09-03T10:29:05;101920.16;;;27.92
62180;BMP280;48172;53.374;10.722;2022-09-03T10:31:47;101913.97;;;27.97
62180;BMP280;48172;53.374;10.722;2022-09-03T10:37:09;101919.34;;;28.06
62180;BMP280;48172;53.374;10.722;2022-09-03T10:42:57;101901.97;;;28.15
62180;BMP280;48172;53.374;10.722;2022-09-03T10:45:38;101904.22;;;28.16
62180;BMP280;48172;53.374;10.722;2022-09-03T10:48:19;101898.53;;;28.20
62180;BMP280;48172;53.374;10.722;2022-09-03T10:51:00;101902.03;;;28.20
62180;BMP280;48172;53.374;10.722;2022-09-03T10:56:31;101898.53;;;28.20
62180;BMP280;48172;53.374;10.722;2022-09-03T11:04:49;101890.28;;;28.20
62180;BMP280;48172;53.374;10.722;2022-09-03T11:07:24;101882.53;;;28.18
62180;BMP280;48172;53.374;10.722;2022-09-03T11:15:44;101886.69;;;28.14
62180;BMP280;48172;53.374;10.722;2022-09-03T11:18:21;101879.69;;;28.13
62180;BMP280;48172;53.374;10.722;2022-09-03T11:20:53;101871.19;;;28.10
62180;BMP280;48172;53.374;10.722;2022-09-03T11:23:22;101870.16;;;28.08
62180;BMP280;48172;53.374;10.722;2022-09-03T11:25:55;101867.97;;;28.12
62180;BMP280;48172;53.374;10.722;2022-09-03T11:28:37;101864.72;;;28.14
62180;BMP280;48172;53.374;10.722;2022-09-03T11:31:10;101863.97;;;28.13
62180;BMP280;48172;53.374;10.722;2022-09-03T11:34:00;101864.28;;;28.15
62180;BMP280;48172;53.374;10.722;2022-09-03T11:36:33;101862.75;;;28.14
62180;BMP280;48172;53.374;10.722;2022-09-03T11:39:12;101870.22;;;28.14
62180;BMP280;48172;53.374;10.722;2022-09-03T11:41:59;101862.19;;;28.10
62180;BMP280;48172;53.374;10.722;2022-09-03T11:44:36;101861.91;;;28.08
62180;BMP280;48172;53.374;10.722;2022-09-03T11:47:37;101850.38;;;28.04
62180;BMP280;48172;53.374;10.722;2022-09-03T11:52:48;101863.09;;;28.01
62180;BMP280;48172;53.374;10.722;2022-09-03T11:55:30;101850.59;;;28.00
62180;BMP280;48172;53.374;10.722;2022-09-03T11:58:22;101853.53;;;27.97
62180;BMP280;48172;53.374;10.722;2022-09-03T12:00:49;101853.78;;;27.93
62180;BMP280;48172;53.374;10.722;2022-09-03T12:03:23;101855.47;;;27.91
62180;BMP280;48172;53.374;10.722;2022-09-03T12:06:12;101850.94;;;27.88
62180;BMP280;48172;53.374;10.722;2022-09-03T12:12:19;101832.75;;;27.90
62180;BMP280;48172;53.374;10.722;2022-09-03T12:14:31;101840.50;;;27.92
62180;BMP280;48172;53.374;10.722;2022-09-03T12:17:10;101836.03;;;27.94
62180;BMP280;48172;53.374;10.722;2022-09-03T12:19:48;101846.56;;;27.96
62180;BMP280;48172;53.374;10.722;2022-09-03T12:22:17;101848.31;;;27.99
62180;BMP280;48172;53.374;10.722;2022-09-03T12:24:45;101842.34;;;28.00
62180;BMP280;48172;53.374;10.722;2022-09-03T12:27:24;101840.63;;;28.03
62180;BMP280;48172;53.374;10.722;2022-09-03T12:29:55;101839.66;;;28.06
62180;BMP280;48172;53.374;10.722;2022-09-03T12:32:32;101847.44;;;28.07
62180;BMP280;48172;53.374;10.722;2022-09-03T12:35:10;101838.97;;;28.11
62180;BMP280;48172;53.374;10.722;2022-09-03T12:37:41;101834.50;;;28.14
62180;BMP280;48172;53.374;10.722;2022-09-03T12:40:29;101842.53;;;28.17
62180;BMP280;48172;53.374;10.722;2022-09-03T12:43:15;101841.31;;;28.18
62180;BMP280;48172;53.374;10.722;2022-09-03T12:46:02;101841.56;;;28.20
62180;BMP280;48172;53.374;10.722;2022-09-03T12:48:38;101831.06;;;28.19
62180;BMP280;48172;53.374;10.722;2022-09-03T12:51:09;101822.06;;;28.18
62180;BMP280;48172;53.374;10.722;2022-09-03T12:53:56;101815.06;;;28.17
62180;BMP280;48172;53.374;10.722;2022-09-03T12:56:24;101811.06;;;28.18
62180;BMP280;48172;53.374;10.722;2022-09-03T12:58:56;101821.31;;;28.18
62180;BMP280;48172;53.374;10.722;2022-09-03T13:01:28;101811.84;;;28.19
62180;BMP280;48172;53.374;10.722;2022-09-03T13:04:11;101809.09;;;28.19
62180;BMP280;48172;53.374;10.722;2022-09-03T13:06:54;101811.06;;;28.18
62180;BMP280;48172;53.374;10.722;2022-09-03T13:09:23;101801.31;;;28.17
62180;BMP280;48172;53.374;10.722;2022-09-03T13:11:51;101802.56;;;28.16
62180;BMP280;48172;53.374;10.722;2022-09-03T13:14:20;101801.53;;;28.14
62180;BMP280;48172;53.374;10.722;2022-09-03T13:17:06;101796.81;;;28.14
62180;BMP280;48172;53.374;10.722;2022-09-03T13:19:54;101802.50;;;28.10
62180;BMP280;48172;53.374;10.722;2022-09-03T13:31:33;101810.16;;;28.01
62180;BMP280;48172;53.374;10.722;2022-09-03T13:34:05;101796.88;;;27.99
62180;BMP280;48172;53.374;10.722;2022-09-03T13:36:55;101795.66;;;28.00
62180;BMP280;48172;53.374;10.722;2022-09-03T13:39:27;101797.94;;;28.02
62180;BMP280;48172;53.374;10.722;2022-09-03T13:42:31;101796.41;;;28.01
62180;BMP280;48172;53.374;10.722;2022-09-03T13:45:15;101804.19;;;28.02
62180;BMP280;48172;53.374;10.722;2022-09-03T13:47:51;101796.22;;;28.04
62180;BMP280;48172;53.374;10.722;2022-09-03T13:50:50;101797.41;;;28.03
62180;BMP280;48172;53.374;10.722;2022-09-03T13:54:02;101793.19;;;28.02
62180;BMP280;48172;53.374;10.722;2022-09-03T13:59:34;101803.66;;;28.04
62180;BMP280;48172;53.374;10.722;2022-09-03T14:02:19;101796.97;;;28.05
62180;BMP280;48172;53.374;10.722;2022-09-03T14:08:27;101789.94;;;28.04
62180;BMP280;48172;53.374;10.722;2022-09-03T14:13:45;101787.41;;;28.00
62180;BMP280;48172;53.374;10.722;2022-09-03T14:16:30;101789.69;;;28.02
62180;BMP280;48172;53.374;10.722;2022-09-03T14:19:04;101776.97;;;28.04
62180;BMP280;48172;53.374;10.722;2022-09-03T14:21:52;101778.19;;;28.03
62180;BMP280;48172;53.374;10.722;2022-09-03T14:24:24;101784.00;;;28.05
62180;BMP280;48172;53.374;10.722;2022-09-03T14:26:56;101783.22;;;28.05
62180;BMP280;48172;53.374;10.722;2022-09-03T14:29:32;101784.00;;;28.05
62180;BMP280;48172;53.374;10.722;2022-09-03T14:34:55;101783.22;;;28.05
62180;BMP280;48172;53.374;10.722;2022-09-03T14:45:50;101780.94;;;28.03
62180;BMP280;48172;53.374;10.722;2022-09-03T14:51:25;101784.19;;;28.02
62180;BMP280;48172;53.374;10.722;2022-09-03T14:59:42;101782.69;;;28.01
62180;BMP280;48172;53.374;10.722;2022-09-03T15:07:21;101787.63;;;27.97
62180;BMP280;48172;53.374;10.722;2022-09-03T15:10:15;101788.38;;;27.97
62180;BMP280;48172;53.374;10.722;2022-09-03T15:12:51;101789.63;;;27.96
62180;BMP280;48172;53.374;10.722;2022-09-03T15:15:21;101788.88;;;27.96
62180;BMP280;48172;53.374;10.722;2022-09-03T15:18:01;101783.06;;;27.94
62180;BMP280;48172;53.374;10.722;2022-09-03T15:20:48;101780.84;;;27.92
62180;BMP280;48172;53.374;10.722;2022-09-03T15:34:41;101776.53;;;27.86
62180;BMP280;48172;53.374;10.722;2022-09-03T15:37:17;101782.03;;;27.86
62180;BMP280;48172;53.374;10.722;2022-09-03T15:39:45;101785.25;;;27.84
62180;BMP280;48172;53.374;10.722;2022-09-03T15:42:20;101784.50;;;27.84
62180;BMP280;48172;53.374;10.722;2022-09-03T15:44:53;101789.22;;;27.83
62180;BMP280;48172;53.374;10.722;2022-09-03T15:55:45;101790.66;;;27.79
62180;BMP280;48172;53.374;10.722;2022-09-03T15:58:36;101780.63;;;27.76
62180;BMP280;48172;53.374;10.722;2022-09-03T16:01:21;101786.63;;;27.74
62180;BMP280;48172;53.374;10.722;2022-09-03T16:03:55;101785.59;;;27.71
62180;BMP280;48172;53.374;10.722;2022-09-03T16:15:21;101789.53;;;27.65
62180;BMP280;48172;53.374;10.722;2022-09-03T16:20:51;101783.00;;;27.62
62180;BMP280;48172;53.374;10.722;2022-09-03T16:23:29;101781.47;;;27.61
62180;BMP280;48172;53.374;10.722;2022-09-03T16:26:05;101777.22;;;27.60
62180;BMP280;48172;53.374;10.722;2022-09-03T16:28:51;101786.41;;;27.57
62180;BMP280;48172;53.374;10.722;2022-09-03T16:40:02;101801.59;;;27.53
62180;BMP280;48172;53.374;10.722;2022-09-03T16:42:58;101803.28;;;27.50
62180;BMP280;48172;53.374;10.722;2022-09-03T16:54:51;101804.94;;;27.42
62180;BMP280;48172;53.374;10.722;2022-09-03T16:59:49;101798.88;;;27.38
62180;BMP280;48172;53.374;10.722;2022-09-03T17:11:58;101806.03;;;27.30
62180;BMP280;48172;53.374;10.722;2022-09-03T17:15:01;101799.50;;;27.27
62180;BMP280;48172;53.374;10.722;2022-09-03T17:26:20;101794.44;;;27.20
62180;BMP280;48172;53.374;10.722;2022-09-03T17:31:26;101797.38;;;27.17
62180;BMP280;48172;53.374;10.722;2022-09-03T17:37:43;101801.53;;;27.12
62180;BMP280;48172;53.374;10.722;2022-09-03T17:40:30;101794.56;;;27.11
62180;BMP280;48172;53.374;10.722;2022-09-03T17:46:02;101801.75;;;27.09
62180;BMP280;48172;53.374;10.722;2022-09-03T17:48:51;101805.22;;;27.09
62180;BMP280;48172;53.374;10.722;2022-09-03T17:51:56;101808.94;;;27.06
62180;BMP280;48172;53.374;10.722;2022-09-03T17:54:43;101809.41;;;27.05
62180;BMP280;48172;53.374;10.722;2022-09-03T17:57:18;101815.34;;;27.03
62180;BMP280;48172;53.374;10.722;2022-09-03T17:59:58;101824.34;;;27.04
62180;BMP280;48172;53.374;10.722;2022-09-03T18:02:31;101823.31;;;27.01
62180;BMP280;48172;53.374;10.722;2022-09-03T18:07:52;101822.28;;;26.98
62180;BMP280;48172;53.374;10.722;2022-09-03T18:10:38;101822.75;;;26.97
62180;BMP280;48172;53.374;10.722;2022-09-03T18:15:48;101839.69;;;26.95